sensor_id;sensor_type;location;lat;lon;timestamp;temperature;humidity
10417;DHT22;62605;49.432;8.680;2023-02-28T00:00:42;0.70;1.00
10417;DHT22;62605;49.432;8.680;2023-02-28T00:03:09;0.60;1.00
10417;DHT22;62605;49.432;8.680;2023-02-28T00:05:36;0.60;1.00
10417;DHT22;62605;49.432;8.680;2023-02-28T00:08:04;0.50;1.00
10417;DHT22;62605;49.432;8.680;2023-02-28T00:10:33;0.50;1.00
10417;DHT22;62605;49.432;8.680;2023-02-28T00:13:02;0.50;1.00
10417;DHT22;62605;49.432;8.680;2023-02-28T00:15:30;0.50;1.00
10417;DHT22;62605;49.432;8.680;2023-02-28T00:17:57;0.40;1.00
10417;DHT22;62605;49.432;8.680;2023-02-28T00:20:24;0.30;1.00
10417;DHT22;62605;49.432;8.680;2023-02-28T00:22:53;0.30;1.00
10417;DHT22;62605;49.432;8.680;2023-02-28T00:25:22;0.30;1.00
10417;DHT22;62605;49.432;8.680;2023-02-28T00:27:50;0.20;1.00
10417;DHT22;62605;49.432;8.680;2023-02-28T00:30:19;0.20;1.00
10417;DHT22;62605;49.432;8.680;2023-02-28T00:32:46;0.20;1.00
10417;DHT22;62605;49.432;8.680;2023-02-28T00:35:14;0.10;1.00
10417;DHT22;62605;49.432;8.680;2023-02-28T00:37:41;0.10;1.00
10417;DHT22;62605;49.432;8.680;2023-02-28T00:40:10;0.10;1.00
10417;DHT22;62605;49.432;8.680;2023-02-28T00:42:38;0.10;1.00
10417;DHT22;62605;49.432;8.680;2023-02-28T00:45:08;0.10;1.00
10417;DHT22;62605;49.432;8.680;2023-02-28T00:47:35;0.20;1.00
10417;DHT22;62605;49.432;8.680;2023-02-28T00:50:03;0.20;1.00
10417;DHT22;62605;49.432;8.680;2023-02-28T00:52:30;0.10;1.00
10417;DHT22;62605;49.432;8.680;2023-02-28T00:54:58;0.10;1.00
10417;DHT22;62605;49.432;8.680;2023-02-28T00:57:25;0.00;1.00
10417;DHT22;62605;49.432;8.680;2023-02-28T00:59:52;0.10;1.00
10417;DHT22;62605;49.432;8.680;2023-02-28T01:02:22;0.10;1.00
10417;DHT22;62605;49.432;8.680;2023-02-28T01:04:49;0.20;1.00
10417;DHT22;62605;49.432;8.680;2023-02-28T01:07:19;0.20;1.00
10417;DHT22;62605;49.432;8.680;2023-02-28T01:09:46;0.20;1.00
10417;DHT22;62605;49.432;8.680;2023-02-28T01:12:13;0.10;1.00
10417;DHT22;62605;49.432;8.680;2023-02-28T01:14:40;0.10;1.00
10417;DHT22;62605;49.432;8.680;2023-02-28T01:17:08;0.10;1.00
10417;DHT22;62605;49.432;8.680;2023-02-28T01:19:36;0.00;1.00
10417;DHT22;62605;49.432;8.680;2023-02-28T01:22:05;0.00;1.00
10417;DHT22;62605;49.432;8.680;2023-02-28T01:24:33;0.10;1.00
10417;DHT22;62605;49.432;8.680;2023-02-28T01:27:00;0.00;1.00
10417;DHT22;62605;49.432;8.680;2023-02-28T01:29:27;0.10;1.00
10417;DHT22;62605;49.432;8.680;2023-02-28T01:31:54;0.00;1.00
10417;DHT22;62605;49.432;8.680;2023-02-28T01:34:22;-0.10;1.00
10417;DHT22;62605;49.432;8.680;2023-02-28T01:36:51;0.10;1.00
10417;DHT22;62605;49.432;8.680;2023-02-28T01:39:18;0.00;1.00
10417;DHT22;62605;49.432;8.680;2023-02-28T01:41:46;0.10;1.00
10417;DHT22;62605;49.432;8.680;2023-02-28T01:47:17;0.00;1.00
10417;DHT22;62605;49.432;8.680;2023-02-28T01:49:44;-0.10;1.00
10417;DHT22;62605;49.432;8.680;2023-02-28T01:52:14;-0.10;1.00
10417;DHT22;62605;49.432;8.680;2023-02-28T01:54:51;-0.20;1.00
10417;DHT22;62605;49.432;8.680;2023-02-28T01:57:21;-0.20;1.00
10417;DHT22;62605;49.432;8.680;2023-02-28T01:59:53;-0.10;1.00
10417;DHT22;62605;49.432;8.680;2023-02-28T02:02:22;-0.10;1.00
10417;DHT22;62605;49.432;8.680;2023-02-28T02:04:53;-0.20;1.00
10417;DHT22;62605;49.432;8.680;2023-02-28T02:07:23;-0.10;1.00
10417;DHT22;62605;49.432;8.680;2023-02-28T02:10:00;-0.10;1.00
10417;DHT22;62605;49.432;8.680;2023-02-28T02:12:37;-0.10;1.00
10417;DHT22;62605;49.432;8.680;2023-02-28T02:15:12;-0.10;1.00
10417;DHT22;62605;49.432;8.680;2023-02-28T02:17:44;-0.10;1.00
10417;DHT22;62605;49.432;8.680;2023-02-28T02:20:32;-0.10;1.00
10417;DHT22;62605;49.432;8.680;2023-02-28T02:23:23;-0.20;1.00
10417;DHT22;62605;49.432;8.680;2023-02-28T02:25:54;-0.10;1.00
10417;DHT22;62605;49.432;8.680;2023-02-28T02:32:00;-0.10;1.00
10417;DHT22;62605;49.432;8.680;2023-02-28T02:34:43;-0.20;1.00
10417;DHT22;62605;49.432;8.680;2023-02-28T02:37:18;-0.20;1.00
10417;DHT22;62605;49.432;8.680;2023-02-28T02:39:53;-0.20;1.00
10417;DHT22;62605;49.432;8.680;2023-02-28T02:42:28;-0.20;1.00
10417;DHT22;62605;49.432;8.680;2023-02-28T02:44:59;-0.10;1.00
10417;DHT22;62605;49.432;8.680;2023-02-28T02:47:29;-0.20;1.00
10417;DHT22;62605;49.432;8.680;2023-02-28T02:50:02;-0.20;1.00
10417;DHT22;62605;49.432;8.680;2023-02-28T02:52:35;-0.20;1.00
10417;DHT22;62605;49.432;8.680;2023-02-28T02:55:04;-0.30;1.00
10417;DHT22;62605;49.432;8.680;2023-02-28T02:57:36;-0.20;1.00
10417;DHT22;62605;49.432;8.680;2023-02-28T03:00:06;-0.30;1.00
10417;DHT22;62605;49.432;8.680;2023-02-28T03:02:36;-0.30;1.00
10417;DHT22;62605;49.432;8.680;2023-02-28T03:08:26;-0.20;1.00
10417;DHT22;62605;49.432;8.680;2023-02-28T03:14:47;-0.40;1.00
10417;DHT22;62605;49.432;8.680;2023-02-28T03:18:03;-0.40;1.00
10417;DHT22;62605;49.432;8.680;2023-02-28T03:20:43;-0.40;1.00
10417;DHT22;62605;49.432;8.680;2023-02-28T03:23:38;-0.40;1.00
10417;DHT22;62605;49.432;8.680;2023-02-28T03:26:16;-0.50;1.00
10417;DHT22;62605;49.432;8.680;2023-02-28T03:28:51;-0.40;1.00
10417;DHT22;62605;49.432;8.680;2023-02-28T03:31:52;-0.40;1.00
10417;DHT22;62605;49.432;8.680;2023-02-28T03:34:48;-0.30;1.00
10417;DHT22;62605;49.432;8.680;2023-02-28T03:37:46;-0.30;1.00
10417;DHT22;62605;49.432;8.680;2023-02-28T03:43:47;-0.50;1.00
10417;DHT22;62605;49.432;8.680;2023-02-28T03:46:25;-0.40;1.00
10417;DHT22;62605;49.432;8.680;2023-02-28T03:48:57;-0.40;1.00
10417;DHT22;62605;49.432;8.680;2023-02-28T03:51:27;-0.40;1.00
10417;DHT22;62605;49.432;8.680;2023-02-28T03:53:58;-0.50;1.00
10417;DHT22;62605;49.432;8.680;2023-02-28T03:56:32;-0.40;1.00
10417;DHT22;62605;49.432;8.680;2023-02-28T03:59:04;-0.30;1.00
10417;DHT22;62605;49.432;8.680;2023-02-28T04:01:36;-0.40;1.00
10417;DHT22;62605;49.432;8.680;2023-02-28T04:07:29;-0.50;1.00
10417;DHT22;62605;49.432;8.680;2023-02-28T04:09:57;-0.40;1.00
10417;DHT22;62605;49.432;8.680;2023-02-28T04:12:26;-0.40;1.00
10417;DHT22;62605;49.432;8.680;2023-02-28T04:14:53;-0.40;1.00
10417;DHT22;62605;49.432;8.680;2023-02-28T04:17:20;-0.50;1.00
10417;DHT22;62605;49.432;8.680;2023-02-28T04:19:47;-0.40;1.00
10417;DHT22;62605;49.432;8.680;2023-02-28T04:22:15;-0.40;1.00
10417;DHT22;62605;49.432;8.680;2023-02-28T04:24:43;-0.50;1.00
10417;DHT22;62605;49.432;8.680;2023-02-28T04:27:19;-0.50;1.00
10417;DHT22;62605;49.432;8.680;2023-02-28T04:29:48;-0.40;1.00
10417;DHT22;62605;49.432;8.680;2023-02-28T04:32:15;-0.50;1.00
10417;DHT22;62605;49.432;8.680;2023-02-28T04:34:42;-0.40;1.00
10417;DHT22;62605;49.432;8.680;2023-02-28T04:37:09;-0.50;1.00
10417;DHT22;62605;49.432;8.680;2023-02-28T04:39:36;-0.50;1.00
10417;DHT22;62605;49.432;8.680;2023-02-28T04:42:04;-0.50;1.00
10417;DHT22;62605;49.432;8.680;2023-02-28T04:44:31;-0.60;1.00
10417;DHT22;62605;49.432;8.680;2023-02-28T04:47:00;-0.50;1.00
10417;DHT22;62605;49.432;8.680;2023-02-28T04:49:27;-0.50;1.00
10417;DHT22;62605;49.432;8.680;2023-02-28T04:51:54;-0.50;1.00
10417;DHT22;62605;49.432;8.680;2023-02-28T04:54:21;-0.60;1.00
10417;DHT22;62605;49.432;8.680;2023-02-28T04:56:48;-0.40;1.00
10417;DHT22;62605;49.432;8.680;2023-02-28T04:59:17;-0.50;1.00
10417;DHT22;62605;49.432;8.680;2023-02-28T05:01:46;-0.50;1.00
10417;DHT22;62605;49.432;8.680;2023-02-28T05:04:15;-0.40;1.00
10417;DHT22;62605;49.432;8.680;2023-02-28T05:06:43;-0.40;1.00
10417;DHT22;62605;49.432;8.680;2023-02-28T05:09:10;-0.40;1.00
10417;DHT22;62605;49.432;8.680;2023-02-28T05:11:38;-0.40;1.00
10417;DHT22;62605;49.432;8.680;2023-02-28T05:14:08;-0.30;1.00
10417;DHT22;62605;49.432;8.680;2023-02-28T05:16:36;-0.30;1.00
10417;DHT22;62605;49.432;8.680;2023-02-28T05:19:03;-0.40;1.00
10417;DHT22;62605;49.432;8.680;2023-02-28T05:21:32;-0.30;1.00
10417;DHT22;62605;49.432;8.680;2023-02-28T05:24:02;-0.20;1.00
10417;DHT22;62605;49.432;8.680;2023-02-28T05:26:33;-0.20;1.00
10417;DHT22;62605;49.432;8.680;2023-02-28T05:29:16;-0.20;1.00
10417;DHT22;62605;49.432;8.680;2023-02-28T05:31:45;-0.20;1.00
10417;DHT22;62605;49.432;8.680;2023-02-28T05:34:17;-0.10;1.00
10417;DHT22;62605;49.432;8.680;2023-02-28T05:36:47;-0.10;1.00
10417;DHT22;62605;49.432;8.680;2023-02-28T05:39:15;-0.20;1.00
10417;DHT22;62605;49.432;8.680;2023-02-28T05:41:44;-0.20;1.00
10417;DHT22;62605;49.432;8.680;2023-02-28T05:44:15;-0.20;1.00
10417;DHT22;62605;49.432;8.680;2023-02-28T05:46:42;-0.10;1.00
10417;DHT22;62605;49.432;8.680;2023-02-28T05:49:09;-0.20;1.00
10417;DHT22;62605;49.432;8.680;2023-02-28T05:51:36;-0.10;1.00
10417;DHT22;62605;49.432;8.680;2023-02-28T05:54:12;-0.20;1.00
10417;DHT22;62605;49.432;8.680;2023-02-28T05:56:40;-0.20;1.00
10417;DHT22;62605;49.432;8.680;2023-02-28T05:59:10;-0.20;1.00
10417;DHT22;62605;49.432;8.680;2023-02-28T06:01:40;-0.20;1.00
10417;DHT22;62605;49.432;8.680;2023-02-28T06:04:09;-0.20;1.00
10417;DHT22;62605;49.432;8.680;2023-02-28T06:06:40;-0.20;1.00
10417;DHT22;62605;49.432;8.680;2023-02-28T06:09:08;-0.20;1.00
10417;DHT22;62605;49.432;8.680;2023-02-28T06:11:36;-0.10;1.00
10417;DHT22;62605;49.432;8.680;2023-02-28T06:14:03;-0.20;1.00
10417;DHT22;62605;49.432;8.680;2023-02-28T06:16:32;-0.20;1.00
10417;DHT22;62605;49.432;8.680;2023-02-28T06:19:01;-0.20;1.00
10417;DHT22;62605;49.432;8.680;2023-02-28T06:21:30;-0.10;1.00
10417;DHT22;62605;49.432;8.680;2023-02-28T06:23:58;-0.20;1.00
10417;DHT22;62605;49.432;8.680;2023-02-28T06:26:27;-0.20;1.00
10417;DHT22;62605;49.432;8.680;2023-02-28T06:28:54;-0.20;1.00
10417;DHT22;62605;49.432;8.680;2023-02-28T06:31:22;-0.10;1.00
10417;DHT22;62605;49.432;8.680;2023-02-28T06:33:51;0.00;1.00
10417;DHT22;62605;49.432;8.680;2023-02-28T06:36:18;0.00;1.00
10417;DHT22;62605;49.432;8.680;2023-02-28T06:38:46;0.00;1.00
10417;DHT22;62605;49.432;8.680;2023-02-28T06:41:17;-0.10;1.00
10417;DHT22;62605;49.432;8.680;2023-02-28T06:43:47;0.00;1.00
10417;DHT22;62605;49.432;8.680;2023-02-28T06:46:15;0.10;1.00
10417;DHT22;62605;49.432;8.680;2023-02-28T06:48:43;0.20;1.00
10417;DHT22;62605;49.432;8.680;2023-02-28T06:51:13;0.30;1.00
10417;DHT22;62605;49.432;8.680;2023-02-28T06:53:41;0.10;1.00
10417;DHT22;62605;49.432;8.680;2023-02-28T06:56:11;0.10;1.00
10417;DHT22;62605;49.432;8.680;2023-02-28T06:58:38;0.10;1.00
10417;DHT22;62605;49.432;8.680;2023-02-28T07:01:07;0.20;1.00
10417;DHT22;62605;49.432;8.680;2023-02-28T07:03:36;0.40;1.00
10417;DHT22;62605;49.432;8.680;2023-02-28T07:06:05;0.20;1.00
10417;DHT22;62605;49.432;8.680;2023-02-28T07:08:32;0.20;1.00
10417;DHT22;62605;49.432;8.680;2023-02-28T07:11:02;0.30;1.00
10417;DHT22;62605;49.432;8.680;2023-02-28T07:13:29;0.30;1.00
10417;DHT22;62605;49.432;8.680;2023-02-28T07:15:58;0.30;1.00
10417;DHT22;62605;49.432;8.680;2023-02-28T07:18:29;0.40;1.00
10417;DHT22;62605;49.432;8.680;2023-02-28T07:20:56;0.40;1.00
10417;DHT22;62605;49.432;8.680;2023-02-28T07:23:24;0.30;1.00
10417;DHT22;62605;49.432;8.680;2023-02-28T07:25:55;0.40;1.00
10417;DHT22;62605;49.432;8.680;2023-02-28T07:28:22;0.40;1.00
10417;DHT22;62605;49.432;8.680;2023-02-28T07:30:49;0.30;1.00
10417;DHT22;62605;49.432;8.680;2023-02-28T07:33:16;0.40;1.00
10417;DHT22;62605;49.432;8.680;2023-02-28T07:35:45;0.30;1.00
10417;DHT22;62605;49.432;8.680;2023-02-28T07:38:12;0.40;1.00
10417;DHT22;62605;49.432;8.680;2023-02-28T07:40:40;0.40;1.00
10417;DHT22;62605;49.432;8.680;2023-02-28T07:43:07;0.50;1.00
10417;DHT22;62605;49.432;8.680;2023-02-28T07:45:34;0.50;1.00
10417;DHT22;62605;49.432;8.680;2023-02-28T07:48:02;0.40;1.00
10417;DHT22;62605;49.432;8.680;2023-02-28T07:50:29;0.50;1.00
10417;DHT22;62605;49.432;8.680;2023-02-28T07:52:58;0.50;1.00
10417;DHT22;62605;49.432;8.680;2023-02-28T07:55:25;0.60;1.00
10417;DHT22;62605;49.432;8.680;2023-02-28T07:57:52;0.60;1.00
10417;DHT22;62605;49.432;8.680;2023-02-28T08:00:20;0.60;1.00
10417;DHT22;62605;49.432;8.680;2023-02-28T08:02:48;0.70;1.00
10417;DHT22;62605;49.432;8.680;2023-02-28T08:05:15;0.70;1.00
10417;DHT22;62605;49.432;8.680;2023-02-28T08:07:42;0.70;1.00
10417;DHT22;62605;49.432;8.680;2023-02-28T08:10:11;0.90;1.00
10417;DHT22;62605;49.432;8.680;2023-02-28T08:12:38;1.00;1.00
10417;DHT22;62605;49.432;8.680;2023-02-28T08:15:07;1.00;1.00
10417;DHT22;62605;49.432;8.680;2023-02-28T08:17:34;1.10;1.00
10417;DHT22;62605;49.432;8.680;2023-02-28T08:20:01;1.10;1.00
10417;DHT22;62605;49.432;8.680;2023-02-28T08:22:29;1.20;1.00
10417;DHT22;62605;49.432;8.680;2023-02-28T08:24:56;1.30;1.00
10417;DHT22;62605;49.432;8.680;2023-02-28T08:27:25;1.30;1.00
10417;DHT22;62605;49.432;8.680;2023-02-28T08:29:52;1.30;1.00
10417;DHT22;62605;49.432;8.680;2023-02-28T08:32:19;1.10;1.00
10417;DHT22;62605;49.432;8.680;2023-02-28T08:34:46;1.30;1.00
10417;DHT22;62605;49.432;8.680;2023-02-28T08:37:13;1.40;1.00
10417;DHT22;62605;49.432;8.680;2023-02-28T08:39:40;1.50;1.00
10417;DHT22;62605;49.432;8.680;2023-02-28T08:42:07;1.50;1.00
10417;DHT22;62605;49.432;8.680;2023-02-28T08:44:36;1.50;1.00
10417;DHT22;62605;49.432;8.680;2023-02-28T08:47:03;1.50;1.00
10417;DHT22;62605;49.432;8.680;2023-02-28T08:49:30;1.50;1.00
10417;DHT22;62605;49.432;8.680;2023-02-28T08:51:57;1.60;1.00
10417;DHT22;62605;49.432;8.680;2023-02-28T08:54:24;1.70;1.00
10417;DHT22;62605;49.432;8.680;2023-02-28T08:56:52;1.70;1.00
10417;DHT22;62605;49.432;8.680;2023-02-28T08:59:19;1.70;1.00
10417;DHT22;62605;49.432;8.680;2023-02-28T09:01:47;1.90;1.00
10417;DHT22;62605;49.432;8.680;2023-02-28T09:04:14;1.80;1.00
10417;DHT22;62605;49.432;8.680;2023-02-28T09:06:41;1.90;1.00
10417;DHT22;62605;49.432;8.680;2023-02-28T09:09:10;2.00;1.00
10417;DHT22;62605;49.432;8.680;2023-02-28T09:11:37;2.20;1.00
10417;DHT22;62605;49.432;8.680;2023-02-28T09:14:04;2.30;1.00
10417;DHT22;62605;49.432;8.680;2023-02-28T09:16:32;2.30;1.00
10417;DHT22;62605;49.432;8.680;2023-02-28T09:19:02;2.40;1.00
10417;DHT22;62605;49.432;8.680;2023-02-28T09:21:29;2.40;1.00
10417;DHT22;62605;49.432;8.680;2023-02-28T09:23:56;2.50;1.00
10417;DHT22;62605;49.432;8.680;2023-02-28T09:26:25;2.40;1.00
10417;DHT22;62605;49.432;8.680;2023-02-28T09:28:53;2.50;1.00
10417;DHT22;62605;49.432;8.680;2023-02-28T09:31:22;2.70;1.00
10417;DHT22;62605;49.432;8.680;2023-02-28T09:33:50;2.80;1.00
10417;DHT22;62605;49.432;8.680;2023-02-28T09:36:19;2.70;1.00
10417;DHT22;62605;49.432;8.680;2023-02-28T09:38:46;3.00;1.00
10417;DHT22;62605;49.432;8.680;2023-02-28T09:41:16;2.90;1.00
10417;DHT22;62605;49.432;8.680;2023-02-28T09:43:46;2.80;1.00
10417;DHT22;62605;49.432;8.680;2023-02-28T09:46:31;3.00;1.00
10417;DHT22;62605;49.432;8.680;2023-02-28T09:49:02;3.10;1.00
10417;DHT22;62605;49.432;8.680;2023-02-28T09:51:44;2.90;1.00
10417;DHT22;62605;49.432;8.680;2023-02-28T09:54:16;2.90;1.00
10417;DHT22;62605;49.432;8.680;2023-02-28T09:56:46;3.20;1.00
10417;DHT22;62605;49.432;8.680;2023-02-28T09:59:29;3.40;1.00
10417;DHT22;62605;49.432;8.680;2023-02-28T10:02:04;3.20;1.00
10417;DHT22;62605;49.432;8.680;2023-02-28T10:04:43;3.50;1.00
10417;DHT22;62605;49.432;8.680;2023-02-28T10:07:24;3.20;1.00
10417;DHT22;62605;49.432;8.680;2023-02-28T10:09:57;3.40;1.00
10417;DHT22;62605;49.432;8.680;2023-02-28T10:12:26;3.30;1.00
10417;DHT22;62605;49.432;8.680;2023-02-28T10:14:55;3.70;1.00
10417;DHT22;62605;49.432;8.680;2023-02-28T10:17:27;3.50;1.00
10417;DHT22;62605;49.432;8.680;2023-02-28T10:20:00;3.30;1.00
10417;DHT22;62605;49.432;8.680;2023-02-28T10:22:39;3.20;1.00
10417;DHT22;62605;49.432;8.680;2023-02-28T10:25:17;3.30;1.00
10417;DHT22;62605;49.432;8.680;2023-02-28T10:27:44;3.30;1.00
10417;DHT22;62605;49.432;8.680;2023-02-28T10:30:12;3.10;1.00
10417;DHT22;62605;49.432;8.680;2023-02-28T10:32:44;3.30;1.00
10417;DHT22;62605;49.432;8.680;2023-02-28T10:35:16;3.30;1.00
10417;DHT22;62605;49.432;8.680;2023-02-28T10:37:49;3.30;1.00
10417;DHT22;62605;49.432;8.680;2023-02-28T10:40:31;3.30;1.00
10417;DHT22;62605;49.432;8.680;2023-02-28T10:43:00;3.30;1.00
10417;DHT22;62605;49.432;8.680;2023-02-28T10:45:29;3.30;1.00
10417;DHT22;62605;49.432;8.680;2023-02-28T10:47:59;3.50;1.00
10417;DHT22;62605;49.432;8.680;2023-02-28T10:50:34;3.70;1.00
10417;DHT22;62605;49.432;8.680;2023-02-28T10:53:31;3.60;1.00
10417;DHT22;62605;49.432;8.680;2023-02-28T10:56:01;3.40;1.00
10417;DHT22;62605;49.432;8.680;2023-02-28T10:58:47;3.30;1.00
10417;DHT22;62605;49.432;8.680;2023-02-28T11:01:16;3.30;1.00
10417;DHT22;62605;49.432;8.680;2023-02-28T11:03:44;3.30;1.00
10417;DHT22;62605;49.432;8.680;2023-02-28T11:06:16;3.40;1.00
10417;DHT22;62605;49.432;8.680;2023-02-28T11:08:48;3.40;1.00
10417;DHT22;62605;49.432;8.680;2023-02-28T11:11:17;3.40;1.00
10417;DHT22;62605;49.432;8.680;2023-02-28T11:13:47;3.50;1.00
10417;DHT22;62605;49.432;8.680;2023-02-28T11:16:18;3.50;1.00
10417;DHT22;62605;49.432;8.680;2023-02-28T11:18:49;3.60;1.00
10417;DHT22;62605;49.432;8.680;2023-02-28T11:21:21;4.30;1.00
10417;DHT22;62605;49.432;8.680;2023-02-28T11:23:52;4.00;1.00
10417;DHT22;62605;49.432;8.680;2023-02-28T11:26:42;4.00;1.00
10417;DHT22;62605;49.432;8.680;2023-02-28T11:29:17;4.20;1.00
10417;DHT22;62605;49.432;8.680;2023-02-28T11:32:02;4.30;1.00
10417;DHT22;62605;49.432;8.680;2023-02-28T11:34:30;4.10;1.00
10417;DHT22;62605;49.432;8.680;2023-02-28T11:36:59;4.40;1.00
10417;DHT22;62605;49.432;8.680;2023-02-28T11:39:32;4.30;1.00
10417;DHT22;62605;49.432;8.680;2023-02-28T11:42:08;4.50;1.00
10417;DHT22;62605;49.432;8.680;2023-02-28T11:44:48;4.50;1.00
10417;DHT22;62605;49.432;8.680;2023-02-28T11:47:27;4.50;1.00
10417;DHT22;62605;49.432;8.680;2023-02-28T11:50:09;4.40;1.00
10417;DHT22;62605;49.432;8.680;2023-02-28T11:52:45;4.30;1.00
10417;DHT22;62605;49.432;8.680;2023-02-28T11:55:20;4.30;1.00
10417;DHT22;62605;49.432;8.680;2023-02-28T11:58:17;4.50;1.00
10417;DHT22;62605;49.432;8.680;2023-02-28T12:01:08;4.50;1.00
10417;DHT22;62605;49.432;8.680;2023-02-28T12:03:43;4.90;1.00
10417;DHT22;62605;49.432;8.680;2023-02-28T12:06:18;5.10;1.00
10417;DHT22;62605;49.432;8.680;2023-02-28T12:08:59;5.00;1.00
10417;DHT22;62605;49.432;8.680;2023-02-28T12:11:39;4.80;1.00
10417;DHT22;62605;49.432;8.680;2023-02-28T12:14:25;4.90;1.00
10417;DHT22;62605;49.432;8.680;2023-02-28T12:17:02;5.00;1.00
10417;DHT22;62605;49.432;8.680;2023-02-28T12:19:39;5.20;1.00
10417;DHT22;62605;49.432;8.680;2023-02-28T12:22:36;5.10;1.00
10417;DHT22;62605;49.432;8.680;2023-02-28T12:28:16;4.90;1.00
10417;DHT22;62605;49.432;8.680;2023-02-28T12:30:53;4.90;1.00
10417;DHT22;62605;49.432;8.680;2023-02-28T12:33:26;5.30;1.00
10417;DHT22;62605;49.432;8.680;2023-02-28T12:35:58;5.30;1.00
10417;DHT22;62605;49.432;8.680;2023-02-28T12:38:27;5.60;1.00
10417;DHT22;62605;49.432;8.680;2023-02-28T12:41:00;5.60;1.00
10417;DHT22;62605;49.432;8.680;2023-02-28T12:43:34;5.00;1.00
10417;DHT22;62605;49.432;8.680;2023-02-28T12:46:10;4.90;1.00
10417;DHT22;62605;49.432;8.680;2023-02-28T12:48:42;5.40;1.00
10417;DHT22;62605;49.432;8.680;2023-02-28T12:51:10;5.60;1.00
10417;DHT22;62605;49.432;8.680;2023-02-28T12:53:50;5.60;1.00
10417;DHT22;62605;49.432;8.680;2023-02-28T12:56:28;5.70;1.00
10417;DHT22;62605;49.432;8.680;2023-02-28T12:59:02;5.70;1.00
10417;DHT22;62605;49.432;8.680;2023-02-28T13:04:45;6.10;1.00
10417;DHT22;62605;49.432;8.680;2023-02-28T13:07:45;5.80;1.00
10417;DHT22;62605;49.432;8.680;2023-02-28T13:10:16;5.90;1.00
10417;DHT22;62605;49.432;8.680;2023-02-28T13:12:48;6.20;1.00
10417;DHT22;62605;49.432;8.680;2023-02-28T13:15:20;6.20;1.00
10417;DHT22;62605;49.432;8.680;2023-02-28T13:17:51;6.60;1.00
10417;DHT22;62605;49.432;8.680;2023-02-28T13:20:20;6.40;1.00
10417;DHT22;62605;49.432;8.680;2023-02-28T13:22:49;6.50;1.00
10417;DHT22;62605;49.432;8.680;2023-02-28T13:25:51;6.70;1.00
10417;DHT22;62605;49.432;8.680;2023-02-28T13:34:36;6.50;1.00
10417;DHT22;62605;49.432;8.680;2023-02-28T13:37:35;6.30;1.00
10417;DHT22;62605;49.432;8.680;2023-02-28T13:40:28;6.30;1.00
10417;DHT22;62605;49.432;8.680;2023-02-28T13:43:02;6.30;1.00
10417;DHT22;62605;49.432;8.680;2023-02-28T13:45:30;6.30;1.00
10417;DHT22;62605;49.432;8.680;2023-02-28T13:48:04;6.40;1.00
10417;DHT22;62605;49.432;8.680;2023-02-28T13:50:35;6.40;1.00
10417;DHT22;62605;49.432;8.680;2023-02-28T13:53:27;6.20;1.00
10417;DHT22;62605;49.432;8.680;2023-02-28T13:56:03;6.20;1.00
10417;DHT22;62605;49.432;8.680;2023-02-28T13:58:51;5.50;1.00
10417;DHT22;62605;49.432;8.680;2023-02-28T14:01:35;5.90;1.00
10417;DHT22;62605;49.432;8.680;2023-02-28T14:04:23;6.00;1.00
10417;DHT22;62605;49.432;8.680;2023-02-28T14:06:57;5.90;1.00
10417;DHT22;62605;49.432;8.680;2023-02-28T14:09:28;6.00;1.00
10417;DHT22;62605;49.432;8.680;2023-02-28T14:11:56;6.00;1.00
10417;DHT22;62605;49.432;8.680;2023-02-28T14:17:24;5.80;1.00
10417;DHT22;62605;49.432;8.680;2023-02-28T14:19:53;5.70;1.00
10417;DHT22;62605;49.432;8.680;2023-02-28T14:22:49;5.60;1.00
10417;DHT22;62605;49.432;8.680;2023-02-28T14:25:30;5.80;1.00
10417;DHT22;62605;49.432;8.680;2023-02-28T14:28:13;5.70;1.00
10417;DHT22;62605;49.432;8.680;2023-02-28T14:31:00;6.00;1.00
10417;DHT22;62605;49.432;8.680;2023-02-28T14:33:42;5.90;1.00
10417;DHT22;62605;49.432;8.680;2023-02-28T14:36:18;5.90;1.00
10417;DHT22;62605;49.432;8.680;2023-02-28T14:38:51;6.20;1.00
10417;DHT22;62605;49.432;8.680;2023-02-28T14:41:22;6.20;1.00
10417;DHT22;62605;49.432;8.680;2023-02-28T14:43:53;6.00;1.00
10417;DHT22;62605;49.432;8.680;2023-02-28T14:46:26;6.00;1.00
10417;DHT22;62605;49.432;8.680;2023-02-28T14:48:55;5.70;1.00
10417;DHT22;62605;49.432;8.680;2023-02-28T14:51:23;5.60;1.00
10417;DHT22;62605;49.432;8.680;2023-02-28T14:53:57;5.60;1.00
10417;DHT22;62605;49.432;8.680;2023-02-28T14:56:27;5.20;1.00
10417;DHT22;62605;49.432;8.680;2023-02-28T14:58:57;5.40;1.00
10417;DHT22;62605;49.432;8.680;2023-02-28T15:01:26;5.40;1.00
10417;DHT22;62605;49.432;8.680;2023-02-28T15:04:01;5.50;1.00
10417;DHT22;62605;49.432;8.680;2023-02-28T15:06:29;5.20;1.00
10417;DHT22;62605;49.432;8.680;2023-02-28T15:09:15;5.30;1.00
10417;DHT22;62605;49.432;8.680;2023-02-28T15:11:46;5.30;1.00
10417;DHT22;62605;49.432;8.680;2023-02-28T15:14:16;5.30;1.00
10417;DHT22;62605;49.432;8.680;2023-02-28T15:16:48;5.50;1.00
10417;DHT22;62605;49.432;8.680;2023-02-28T15:19:20;5.30;1.00
10417;DHT22;62605;49.432;8.680;2023-02-28T15:21:53;5.40;1.00
10417;DHT22;62605;49.432;8.680;2023-02-28T15:24:30;5.50;1.00
10417;DHT22;62605;49.432;8.680;2023-02-28T15:27:01;5.20;1.00
10417;DHT22;62605;49.432;8.680;2023-02-28T15:29:32;5.10;1.00
10417;DHT22;62605;49.432;8.680;2023-02-28T15:32:03;5.10;1.00
10417;DHT22;62605;49.432;8.680;2023-02-28T15:34:34;5.00;1.00
10417;DHT22;62605;49.432;8.680;2023-02-28T15:37:06;5.10;1.00
10417;DHT22;62605;49.432;8.680;2023-02-28T15:39:42;5.10;1.00
10417;DHT22;62605;49.432;8.680;2023-02-28T15:42:11;5.20;1.00
10417;DHT22;62605;49.432;8.680;2023-02-28T15:44:38;5.20;1.00
10417;DHT22;62605;49.432;8.680;2023-02-28T15:47:11;5.20;1.00
10417;DHT22;62605;49.432;8.680;2023-02-28T15:49:47;5.10;1.00
10417;DHT22;62605;49.432;8.680;2023-02-28T15:52:17;5.20;1.00
10417;DHT22;62605;49.432;8.680;2023-02-28T15:54:47;5.20;1.00
10417;DHT22;62605;49.432;8.680;2023-02-28T15:57:17;5.00;1.00
10417;DHT22;62605;49.432;8.680;2023-02-28T15:59:52;5.00;1.00
10417;DHT22;62605;49.432;8.680;2023-02-28T16:02:22;5.00;1.00
10417;DHT22;62605;49.432;8.680;2023-02-28T16:05:00;4.90;1.00
10417;DHT22;62605;49.432;8.680;2023-02-28T16:07:28;4.80;1.00
10417;DHT22;62605;49.432;8.680;2023-02-28T16:09:58;4.80;1.00
10417;DHT22;62605;49.432;8.680;2023-02-28T16:12:31;4.90;1.00
10417;DHT22;62605;49.432;8.680;2023-02-28T16:15:07;5.00;1.00
10417;DHT22;62605;49.432;8.680;2023-02-28T16:17:38;4.80;1.00
10417;DHT22;62605;49.432;8.680;2023-02-28T16:20:11;4.80;1.00
10417;DHT22;62605;49.432;8.680;2023-02-28T16:22:39;4.80;1.00
10417;DHT22;62605;49.432;8.680;2023-02-28T16:25:11;4.70;1.00
10417;DHT22;62605;49.432;8.680;2023-02-28T16:27:39;4.70;1.00
10417;DHT22;62605;49.432;8.680;2023-02-28T16:30:07;4.80;1.00
10417;DHT22;62605;49.432;8.680;2023-02-28T16:32:41;4.70;1.00
10417;DHT22;62605;49.432;8.680;2023-02-28T16:35:10;4.80;1.00
10417;DHT22;62605;49.432;8.680;2023-02-28T16:37:40;4.60;1.00
10417;DHT22;62605;49.432;8.680;2023-02-28T16:40:14;4.60;1.00
10417;DHT22;62605;49.432;8.680;2023-02-28T16:42:42;4.50;1.00
10417;DHT22;62605;49.432;8.680;2023-02-28T16:45:16;4.50;1.00
10417;DHT22;62605;49.432;8.680;2023-02-28T16:47:45;4.40;1.00
10417;DHT22;62605;49.432;8.680;2023-02-28T16:50:17;4.40;1.00
10417;DHT22;62605;49.432;8.680;2023-02-28T16:52:44;4.40;1.00
10417;DHT22;62605;49.432;8.680;2023-02-28T16:55:13;4.30;1.00
10417;DHT22;62605;49.432;8.680;2023-02-28T16:57:40;4.30;1.00
10417;DHT22;62605;49.432;8.680;2023-02-28T17:00:11;4.20;1.00
10417;DHT22;62605;49.432;8.680;2023-02-28T17:02:39;4.10;1.00